Time,TemperatureF,DewpointF,PressureIn,WindDirection,WindDirectionDegrees,WindSpeedMPH,WindSpeedGustMPH,Humidity,HourlyPrecipIn,Conditions,Clouds,dailyrainin,SoftwareType,DateUTC
2013-08-31 00:10:00,75.7,65.0,29.88,SW,229,2.0,-999.0,69,-99.99,,,0.00,weatherlink.com 1.10,2013-08-31 07:10:00,
2013-08-31 00:25:00,75.5,65.0,29.88,SW,229,0.0,-999.0,70,-99.99,,,0.00,weatherlink.com 1.10,2013-08-31 07:25:00,
2013-08-31 00:40:00,75.4,65.0,29.88,SW,229,1.0,-999.0,69,-99.99,,,0.00,weatherlink.com 1.10,2013-08-31 07:40:00,
2013-08-31 00:55:00,75.4,65.0,29.88,SW,229,0.0,-999.0,69,-99.99,,,0.00,weatherlink.com 1.10,2013-08-31 07:55:00,
2013-08-31 01:10:00,75.3,65.0,29.88,SW,229,0.0,-999.0,70,-99.99,,,0.00,weatherlink.com 1.10,2013-08-31 08:10:00,
2013-08-31 01:25:00,75.1,65.0,29.87,SW,229,0.0,-999.0,71,-99.99,,,0.00,weatherlink.com 1.10,2013-08-31 08:25:00,
2013-08-31 01:40:00,74.9,65.0,29.87,SW,229,0.0,-999.0,72,-99.99,,,0.00,weatherlink.com 1.10,2013-08-31 08:40:00,
2013-08-31 01:55:00,74.7,65.0,29.86,SW,229,0.0,-999.0,72,-99.99,,,0.00,weatherlink.com 1.10,2013-08-31 08:55:00,
2013-08-31 02:10:00,74.5,65.0,29.86,SW,229,0.0,-999.0,72,-99.99,,,0.00,weatherlink.com 1.10,2013-08-31 09:10:00,
2013-08-31 02:25:00,74.5,65.0,29.86,SW,229,0.0,-999.0,72,-99.99,,,0.00,weatherlink.com 1.10,2013-08-31 09:25:00,
2013-08-31 02:40:00,74.7,65.0,29.86,SW,229,0.0,-999.0,71,-99.99,,,0.00,weatherlink.com 1.10,2013-08-31 09:40:00,
2013-08-31 02:55:00,75.0,65.0,29.86,SW,229,0.0,-999.0,71,-99.99,,,0.00,weatherlink.com 1.10,2013-08-31 09:55:00,
2013-08-31 03:10:00,75.0,65.0,29.86,SW,229,0.0,-999.0,71,-99.99,,,0.00,weatherlink.com 1.10,2013-08-31 10:10:00,
2013-08-31 03:25:00,74.9,65.0,29.86,SW,229,0.0,-999.0,70,-99.99,,,0.00,weatherlink.com 1.10,2013-08-31 10:25:00,
2013-08-31 03:40:00,74.7,65.0,29.86,SW,229,0.0,-999.0,71,-99.99,,,0.00,weatherlink.com 1.10,2013-08-31 10:40:00,
2013-08-31 03:56:00,74.6,65.0,29.85,SW,229,0.0,-999.0,72,-99.99,,,0.00,weatherlink.com 1.10,2013-08-31 10:56:00,
2013-08-31 04:11:00,74.5,65.0,29.85,SW,229,0.0,-999.0,73,-99.99,,,0.00,weatherlink.com 1.10,2013-08-31 11:11:00,
2013-08-31 04:26:00,74.3,66.0,29.85,SW,229,0.0,-999.0,74,-99.99,,,0.00,weatherlink.com 1.10,2013-08-31 11:26:00,
2013-08-31 04:41:00,74.0,65.0,29.85,SW,229,0.0,-999.0,74,-99.99,,,0.00,weatherlink.com 1.10,2013-08-31 11:41:00,
2013-08-31 04:56:00,73.7,65.0,29.85,SW,229,0.0,-999.0,75,-99.99,,,0.00,weatherlink.com 1.10,2013-08-31 11:56:00,
2013-08-31 05:11:00,73.5,66.0,29.85,SW,229,0.0,-999.0,76,-99.99,,,0.00,weatherlink.com 1.10,2013-08-31 12:11:00,
2013-08-31 05:26:00,73.4,66.0,29.85,SW,229,0.0,-999.0,77,-99.99,,,0.00,weatherlink.com 1.10,2013-08-31 12:26:00,
2013-08-31 05:41:00,73.5,66.0,29.85,SW,229,0.0,-999.0,78,-99.99,,,0.00,weatherlink.com 1.10,2013-08-31 12:41:00,
2013-08-31 05:56:00,73.7,67.0,29.86,SW,229,0.0,-999.0,79,-99.99,,,0.00,weatherlink.com 1.10,2013-08-31 12:56:00,
2013-08-31 06:11:00,73.8,67.0,29.86,SW,229,0.0,-999.0,79,-99.99,,,0.00,weatherlink.com 1.10,2013-08-31 13:11:00,
2013-08-31 06:26:00,73.8,67.0,29.86,SW,229,0.0,-999.0,79,-99.99,,,0.00,weatherlink.com 1.10,2013-08-31 13:26:00,
2013-08-31 06:41:00,73.8,67.0,29.86,SW,229,0.0,-999.0,79,-99.99,,,0.00,weatherlink.com 1.10,2013-08-31 13:41:00,
2013-08-31 06:56:00,73.8,67.0,29.87,SW,229,0.0,-999.0,80,-99.99,,,0.00,weatherlink.com 1.10,2013-08-31 13:56:00,
2013-08-31 07:11:00,73.9,67.0,29.88,SW,229,0.0,-999.0,80,-99.99,,,0.00,weatherlink.com 1.10,2013-08-31 14:11:00,
2013-08-31 07:26:00,74.6,67.0,29.88,SW,229,0.0,-999.0,78,-99.99,,,0.00,weatherlink.com 1.10,2013-08-31 14:26:00,
2013-08-31 07:41:00,75.2,68.0,29.88,SW,229,0.0,-999.0,77,-99.99,,,0.00,weatherlink.com 1.10,2013-08-31 14:41:00,
2013-08-31 07:56:00,75.7,68.0,29.88,SW,229,1.0,-999.0,77,-99.99,,,0.00,weatherlink.com 1.10,2013-08-31 14:56:00,
2013-08-31 08:11:00,76.4,68.0,29.88,SW,229,0.0,-999.0,76,-99.99,,,0.00,weatherlink.com 1.10,2013-08-31 15:11:00,
2013-08-31 08:26:00,77.3,68.0,29.88,SW,229,2.0,-999.0,74,-99.99,,,0.00,weatherlink.com 1.10,2013-08-31 15:26:00,
2013-08-31 08:41:00,78.2,68.0,29.88,SW,229,0.0,-999.0,72,-99.99,,,0.00,weatherlink.com 1.10,2013-08-31 15:41:00,
2013-08-31 08:56:00,79.0,69.0,29.88,SW,229,0.0,-999.0,71,-99.99,,,0.00,weatherlink.com 1.10,2013-08-31 15:56:00,
2013-08-31 09:11:00,79.9,69.0,29.89,SW,229,3.0,-999.0,70,-99.99,,,0.00,weatherlink.com 1.10,2013-08-31 16:11:00,
2013-08-31 09:26:00,80.3,70.0,29.89,SW,229,0.0,-999.0,70,-99.99,,,0.00,weatherlink.com 1.10,2013-08-31 16:26:00,
2013-08-31 09:41:00,81.0,70.0,29.89,SW,229,3.0,-999.0,69,-99.99,,,0.00,weatherlink.com 1.10,2013-08-31 16:41:00,
2013-08-31 09:56:00,81.7,70.0,29.89,SSW,199,0.0,-999.0,68,-99.99,,,0.00,weatherlink.com 1.10,2013-08-31 16:56:00,
2013-08-31 10:11:00,82.4,71.0,29.89,WSW,253,0.0,-999.0,68,-99.99,,,0.00,weatherlink.com 1.10,2013-08-31 17:11:00,
2013-08-31 10:26:00,83.2,72.0,29.89,SSW,213,4.0,-999.0,68,-99.99,,,0.00,weatherlink.com 1.10,2013-08-31 17:26:00,
2013-08-31 10:41:00,84.4,72.0,29.89,West,260,0.0,-999.0,66,-99.99,,,0.00,weatherlink.com 1.10,2013-08-31 17:41:00,
2013-08-31 10:56:00,85.5,72.0,29.89,SSW,202,3.0,-999.0,64,-99.99,,,0.00,weatherlink.com 1.10,2013-08-31 17:56:00,
2013-08-31 11:11:00,86.8,72.0,29.89,SW,232,2.0,-999.0,62,-99.99,,,0.00,weatherlink.com 1.10,2013-08-31 18:11:00,
2013-08-31 11:26:00,88.9,72.0,29.89,SW,215,0.0,-999.0,57,-99.99,,,0.00,weatherlink.com 1.10,2013-08-31 18:26:00,
2013-08-31 11:41:00,90.7,72.0,29.89,SW,233,0.0,-999.0,55,-99.99,,,0.00,weatherlink.com 1.10,2013-08-31 18:41:00,
2013-08-31 11:56:00,91.5,71.0,29.88,SSW,205,5.0,-999.0,52,-99.99,,,0.00,weatherlink.com 1.10,2013-08-31 18:56:00,
2013-08-31 12:11:00,91.0,72.0,29.88,West,269,6.0,-999.0,53,-99.99,,,0.00,weatherlink.com 1.10,2013-08-31 19:11:00,
2013-08-31 12:27:00,91.9,71.0,29.87,WNW,282,5.0,-999.0,51,-99.99,,,0.00,weatherlink.com 1.10,2013-08-31 19:27:00,
2013-08-31 12:42:00,91.9,71.0,29.87,SW,233,2.0,-999.0,51,-99.99,,,0.00,weatherlink.com 1.10,2013-08-31 19:42:00,
2013-08-31 12:57:00,92.4,72.0,29.87,SW,232,5.0,-999.0,51,-99.99,,,0.00,weatherlink.com 1.10,2013-08-31 19:57:00,
2013-08-31 13:12:00,91.6,72.0,29.86,SSW,203,7.0,-999.0,53,-99.99,,,0.00,weatherlink.com 1.10,2013-08-31 20:12:00,
2013-08-31 13:27:00,91.1,72.0,29.86,WSW,244,5.0,-999.0,53,-99.99,,,0.00,weatherlink.com 1.10,2013-08-31 20:27:00,
2013-08-31 13:42:00,92.3,73.0,29.86,SSW,206,5.0,-999.0,53,-99.99,,,0.00,weatherlink.com 1.10,2013-08-31 20:42:00,
2013-08-31 13:57:00,91.5,73.0,29.85,WSW,250,4.0,-999.0,55,-99.99,,,0.00,weatherlink.com 1.10,2013-08-31 20:57:00,
2013-08-31 14:12:00,92.2,72.0,29.84,WSW,248,3.0,-999.0,52,-99.99,,,0.00,weatherlink.com 1.10,2013-08-31 21:12:00,
2013-08-31 14:27:00,93.3,73.0,29.84,West,278,2.0,-999.0,51,-99.99,,,0.00,weatherlink.com 1.10,2013-08-31 21:27:00,
2013-08-31 14:42:00,92.6,72.0,29.84,NW,325,0.0,-999.0,52,-99.99,,,0.00,weatherlink.com 1.10,2013-08-31 21:42:00,
2013-08-31 14:57:00,92.2,73.0,29.83,WNW,282,2.0,-999.0,53,-99.99,,,0.00,weatherlink.com 1.10,2013-08-31 21:57:00,
2013-08-31 15:12:00,93.2,74.0,29.83,WNW,288,2.0,-999.0,53,-99.99,,,0.00,weatherlink.com 1.10,2013-08-31 22:12:00,
2013-08-31 15:27:00,92.9,72.0,29.83,North,5,3.0,-999.0,51,-99.99,,,0.00,weatherlink.com 1.10,2013-08-31 22:27:00,
2013-08-31 15:42:00,93.0,73.0,29.82,WSW,239,1.0,-999.0,52,-99.99,,,0.00,weatherlink.com 1.10,2013-08-31 22:42:00,
2013-08-31 15:57:00,93.0,73.0,29.82,North,360,5.0,-999.0,52,-99.99,,,0.00,weatherlink.com 1.10,2013-08-31 22:57:00,
2013-08-31 16:12:00,91.0,73.0,29.81,NW,317,3.0,-999.0,55,-99.99,,,0.00,weatherlink.com 1.10,2013-08-31 23:12:00,
2013-08-31 16:27:00,90.4,73.0,29.81,NNW,348,6.0,-999.0,57,-99.99,,,0.00,weatherlink.com 1.10,2013-08-31 23:27:00,
2013-08-31 16:42:00,89.7,73.0,29.81,WNW,292,3.0,-999.0,59,-99.99,,,0.00,weatherlink.com 1.10,2013-08-31 23:42:00,
2013-08-31 16:57:00,88.7,73.0,29.81,NNW,328,4.0,-999.0,60,-99.99,,,0.00,weatherlink.com 1.10,2013-08-31 23:57:00,
2013-08-31 17:12:00,88.5,73.0,29.80,NW,313,3.0,-999.0,60,-99.99,,,0.00,weatherlink.com 1.10,2013-09-01 00:12:00,
2013-08-31 17:27:00,88.1,73.0,29.80,North,360,2.0,-999.0,61,-99.99,,,0.00,weatherlink.com 1.10,2013-09-01 00:27:00,
2013-08-31 17:42:00,87.1,72.0,29.80,NNE,15,4.0,-999.0,62,-99.99,,,0.00,weatherlink.com 1.10,2013-09-01 00:42:00,
2013-08-31 17:57:00,86.7,72.0,29.81,NW,322,0.0,-999.0,62,-99.99,,,0.00,weatherlink.com 1.10,2013-09-01 00:57:00,
2013-08-31 18:12:00,86.6,72.0,29.80,WNW,289,1.0,-999.0,62,-99.99,,,0.00,weatherlink.com 1.10,2013-09-01 01:12:00,
2013-08-31 18:27:00,86.0,72.0,29.81,NW,311,1.0,-999.0,63,-99.99,,,0.00,weatherlink.com 1.10,2013-09-01 01:27:00,
2013-08-31 18:42:00,84.9,71.0,29.81,North,5,3.0,-999.0,64,-99.99,,,0.00,weatherlink.com 1.10,2013-09-01 01:42:00,
2013-08-31 18:57:00,84.5,71.0,29.81,NW,322,3.0,-999.0,65,-99.99,,,0.00,weatherlink.com 1.10,2013-09-01 01:57:00,
2013-08-31 19:12:00,83.4,70.0,29.82,NNW,338,0.0,-999.0,65,-99.99,,,0.00,weatherlink.com 1.10,2013-09-01 02:12:00,
2013-08-31 19:27:00,82.7,70.0,29.83,NNW,329,2.0,-999.0,66,-99.99,,,0.00,weatherlink.com 1.10,2013-09-01 02:27:00,
2013-08-31 19:42:00,81.8,71.0,29.83,NW,315,2.0,-999.0,69,-99.99,,,0.00,weatherlink.com 1.10,2013-09-01 02:42:00,
2013-08-31 19:57:00,81.0,70.0,29.84,NNW,342,1.0,-999.0,69,-99.99,,,0.00,weatherlink.com 1.10,2013-09-01 02:57:00,
2013-08-31 20:12:00,80.5,70.0,29.85,NW,314,0.0,-999.0,70,-99.99,,,0.00,weatherlink.com 1.10,2013-09-01 03:12:00,
2013-08-31 20:27:00,80.2,69.0,29.85,NNW,331,0.0,-999.0,69,-99.99,,,0.00,weatherlink.com 1.10,2013-09-01 03:27:00,
2013-08-31 20:42:00,80.3,70.0,29.86,WNW,290,1.0,-999.0,70,-99.99,,,0.00,weatherlink.com 1.10,2013-09-01 03:42:00,
2013-08-31 20:57:00,80.0,70.0,29.86,NW,319,0.0,-999.0,71,-99.99,,,0.00,weatherlink.com 1.10,2013-09-01 03:57:00,
2013-08-31 21:12:00,79.6,69.0,29.86,North,360,1.0,-999.0,71,-99.99,,,0.00,weatherlink.com 1.10,2013-09-01 04:12:00,
2013-08-31 21:27:00,79.1,69.0,29.86,North,355,0.0,-999.0,71,-99.99,,,0.00,weatherlink.com 1.10,2013-09-01 04:27:00,
2013-08-31 21:42:00,78.9,69.0,29.86,North,355,0.0,-999.0,71,-99.99,,,0.00,weatherlink.com 1.10,2013-09-01 04:42:00,
2013-08-31 21:57:00,78.8,69.0,29.88,NW,319,4.0,-999.0,73,-99.99,,,0.00,weatherlink.com 1.10,2013-09-01 04:57:00,
2013-08-31 22:12:00,78.3,69.0,29.88,NW,319,0.0,-999.0,74,-99.99,,,0.00,weatherlink.com 1.10,2013-09-01 05:12:00,
2013-08-31 22:27:00,78.1,69.0,29.87,NW,319,0.0,-999.0,74,-99.99,,,0.00,weatherlink.com 1.10,2013-09-01 05:27:00,
2013-08-31 22:42:00,77.9,68.0,29.88,NW,319,1.0,-999.0,72,-99.99,,,0.00,weatherlink.com 1.10,2013-09-01 05:42:00,
2013-08-31 22:57:00,77.4,67.0,29.87,NW,319,0.0,-999.0,71,-99.99,,,0.00,weatherlink.com 1.10,2013-09-01 05:57:00,
2013-08-31 23:12:00,77.1,67.0,29.87,NW,319,0.0,-999.0,71,-99.99,,,0.00,weatherlink.com 1.10,2013-09-01 06:12:00,
2013-08-31 23:27:00,76.7,66.0,29.87,NW,319,0.0,-999.0,70,-99.99,,,0.00,weatherlink.com 1.10,2013-09-01 06:27:00,
2013-08-31 23:42:00,76.3,65.0,29.86,NW,319,2.0,-999.0,69,-99.99,,,0.00,weatherlink.com 1.10,2013-09-01 06:42:00,
2013-08-31 23:57:00,76.1,66.0,29.86,NW,319,0.0,-999.0,70,-99.99,,,0.00,weatherlink.com 1.10,2013-09-01 06:57:00,